sensor_id;sensor_type;location;lat;lon;timestamp;temperature;humidity
44729;DHT22;30457;53.590;9.922;2023-02-15T00:01:06;8.40;60.40
44729;DHT22;30457;53.590;9.922;2023-02-15T00:05:32;8.50;60.60
44729;DHT22;30457;53.590;9.922;2023-02-15T00:09:58;8.50;60.70
44729;DHT22;30457;53.590;9.922;2023-02-15T00:14:24;8.50;60.80
44729;DHT22;30457;53.590;9.922;2023-02-15T00:18:51;8.50;60.70
44729;DHT22;30457;53.590;9.922;2023-02-15T00:23:17;8.50;61.00
44729;DHT22;30457;53.590;9.922;2023-02-15T00:27:43;8.60;61.10
44729;DHT22;30457;53.590;9.922;2023-02-15T00:32:08;8.60;61.00
44729;DHT22;30457;53.590;9.922;2023-02-15T00:36:34;8.60;61.30
44729;DHT22;30457;53.590;9.922;2023-02-15T00:41:01;8.60;61.40
44729;DHT22;30457;53.590;9.922;2023-02-15T00:45:26;8.60;61.40
44729;DHT22;30457;53.590;9.922;2023-02-15T00:49:52;8.60;61.30
44729;DHT22;30457;53.590;9.922;2023-02-15T00:54:18;8.60;61.30
44729;DHT22;30457;53.590;9.922;2023-02-15T00:58:44;8.70;61.50
44729;DHT22;30457;53.590;9.922;2023-02-15T01:03:10;8.70;61.60
44729;DHT22;30457;53.590;9.922;2023-02-15T01:07:36;8.70;61.60
44729;DHT22;30457;53.590;9.922;2023-02-15T01:12:01;8.70;61.60
44729;DHT22;30457;53.590;9.922;2023-02-15T01:16:28;8.70;62.50
44729;DHT22;30457;53.590;9.922;2023-02-15T01:20:53;8.70;61.70
44729;DHT22;30457;53.590;9.922;2023-02-15T01:25:21;8.70;61.70
44729;DHT22;30457;53.590;9.922;2023-02-15T01:29:47;8.70;61.70
44729;DHT22;30457;53.590;9.922;2023-02-15T01:34:14;8.80;61.60
44729;DHT22;30457;53.590;9.922;2023-02-15T01:38:39;8.80;61.70
44729;DHT22;30457;53.590;9.922;2023-02-15T01:43:10;8.80;62.50
44729;DHT22;30457;53.590;9.922;2023-02-15T01:47:41;8.80;61.90
44729;DHT22;30457;53.590;9.922;2023-02-15T01:52:09;8.90;61.90
44729;DHT22;30457;53.590;9.922;2023-02-15T01:56:37;8.80;61.70
44729;DHT22;30457;53.590;9.922;2023-02-15T02:01:07;8.80;61.80
44729;DHT22;30457;53.590;9.922;2023-02-15T02:05:35;8.90;61.90
44729;DHT22;30457;53.590;9.922;2023-02-15T02:10:02;8.90;61.90
44729;DHT22;30457;53.590;9.922;2023-02-15T02:14:32;8.90;61.80
44729;DHT22;30457;53.590;9.922;2023-02-15T02:19:32;8.90;61.70
44729;DHT22;30457;53.590;9.922;2023-02-15T02:24:21;8.90;62.00
44729;DHT22;30457;53.590;9.922;2023-02-15T02:33:28;8.80;62.50
44729;DHT22;30457;53.590;9.922;2023-02-15T02:42:49;8.80;62.00
44729;DHT22;30457;53.590;9.922;2023-02-15T02:47:29;8.90;61.90
44729;DHT22;30457;53.590;9.922;2023-02-15T02:52:03;8.90;62.00
44729;DHT22;30457;53.590;9.922;2023-02-15T02:56:39;8.90;61.70
44729;DHT22;30457;53.590;9.922;2023-02-15T03:01:12;8.80;61.90
44729;DHT22;30457;53.590;9.922;2023-02-15T03:05:43;8.90;61.90
44729;DHT22;30457;53.590;9.922;2023-02-15T03:10:11;8.80;62.00
44729;DHT22;30457;53.590;9.922;2023-02-15T03:14:37;8.80;62.00
44729;DHT22;30457;53.590;9.922;2023-02-15T03:19:15;8.80;62.00
44729;DHT22;30457;53.590;9.922;2023-02-15T03:23:43;8.80;62.30
44729;DHT22;30457;53.590;9.922;2023-02-15T03:28:19;8.80;62.10
44729;DHT22;30457;53.590;9.922;2023-02-15T03:32:47;8.80;62.30
44729;DHT22;30457;53.590;9.922;2023-02-15T03:37:32;8.80;62.00
44729;DHT22;30457;53.590;9.922;2023-02-15T03:46:44;8.80;62.20
44729;DHT22;30457;53.590;9.922;2023-02-15T03:51:18;8.80;62.00
44729;DHT22;30457;53.590;9.922;2023-02-15T03:56:00;8.80;62.20
44729;DHT22;30457;53.590;9.922;2023-02-15T04:00:26;8.80;61.90
44729;DHT22;30457;53.590;9.922;2023-02-15T04:05:10;8.80;61.90
44729;DHT22;30457;53.590;9.922;2023-02-15T04:09:36;8.80;61.80
44729;DHT22;30457;53.590;9.922;2023-02-15T04:14:20;8.80;61.90
44729;DHT22;30457;53.590;9.922;2023-02-15T04:19:04;8.70;61.80
44729;DHT22;30457;53.590;9.922;2023-02-15T04:23:49;8.80;61.90
44729;DHT22;30457;53.590;9.922;2023-02-15T04:28:33;8.70;62.00
44729;DHT22;30457;53.590;9.922;2023-02-15T04:32:58;8.70;61.90
44729;DHT22;30457;53.590;9.922;2023-02-15T04:37:24;8.70;61.80
44729;DHT22;30457;53.590;9.922;2023-02-15T04:41:49;8.70;61.80
44729;DHT22;30457;53.590;9.922;2023-02-15T04:46:15;8.70;61.80
44729;DHT22;30457;53.590;9.922;2023-02-15T04:50:40;8.70;61.70
44729;DHT22;30457;53.590;9.922;2023-02-15T04:55:06;8.70;61.60
44729;DHT22;30457;53.590;9.922;2023-02-15T04:59:32;8.60;61.60
44729;DHT22;30457;53.590;9.922;2023-02-15T05:03:57;8.60;61.80
44729;DHT22;30457;53.590;9.922;2023-02-15T05:08:23;8.60;61.90
44729;DHT22;30457;53.590;9.922;2023-02-15T05:12:49;8.60;62.00
44729;DHT22;30457;53.590;9.922;2023-02-15T05:17:14;8.60;61.90
44729;DHT22;30457;53.590;9.922;2023-02-15T05:21:40;8.60;61.60
44729;DHT22;30457;53.590;9.922;2023-02-15T05:26:05;8.60;61.70
44729;DHT22;30457;53.590;9.922;2023-02-15T05:31:02;8.60;61.70
44729;DHT22;30457;53.590;9.922;2023-02-15T05:35:27;8.60;61.80
44729;DHT22;30457;53.590;9.922;2023-02-15T05:39:53;8.50;61.70
44729;DHT22;30457;53.590;9.922;2023-02-15T05:44:19;8.50;61.70
44729;DHT22;30457;53.590;9.922;2023-02-15T05:48:44;8.60;61.90
44729;DHT22;30457;53.590;9.922;2023-02-15T05:53:10;8.50;61.60
44729;DHT22;30457;53.590;9.922;2023-02-15T05:57:36;8.50;61.50
44729;DHT22;30457;53.590;9.922;2023-02-15T06:02:02;8.50;61.50
44729;DHT22;30457;53.590;9.922;2023-02-15T06:06:27;8.50;61.50
44729;DHT22;30457;53.590;9.922;2023-02-15T06:10:53;8.50;61.50
44729;DHT22;30457;53.590;9.922;2023-02-15T06:15:18;8.50;61.50
44729;DHT22;30457;53.590;9.922;2023-02-15T06:19:44;8.50;61.60
44729;DHT22;30457;53.590;9.922;2023-02-15T06:24:09;8.50;61.60
44729;DHT22;30457;53.590;9.922;2023-02-15T06:28:35;8.40;61.50
44729;DHT22;30457;53.590;9.922;2023-02-15T06:33:02;8.40;61.60
44729;DHT22;30457;53.590;9.922;2023-02-15T06:37:28;8.40;61.60
44729;DHT22;30457;53.590;9.922;2023-02-15T06:41:53;8.40;61.60
44729;DHT22;30457;53.590;9.922;2023-02-15T06:46:19;8.40;61.60
44729;DHT22;30457;53.590;9.922;2023-02-15T06:50:44;8.40;61.70
44729;DHT22;30457;53.590;9.922;2023-02-15T06:55:10;8.40;62.60
44729;DHT22;30457;53.590;9.922;2023-02-15T06:59:36;8.40;61.70
44729;DHT22;30457;53.590;9.922;2023-02-15T07:04:01;8.40;61.60
44729;DHT22;30457;53.590;9.922;2023-02-15T07:08:28;8.40;61.60
44729;DHT22;30457;53.590;9.922;2023-02-15T07:12:53;8.30;61.60
44729;DHT22;30457;53.590;9.922;2023-02-15T07:17:19;8.30;61.60
44729;DHT22;30457;53.590;9.922;2023-02-15T07:21:45;8.30;61.80
44729;DHT22;30457;53.590;9.922;2023-02-15T07:26:11;8.30;61.90
44729;DHT22;30457;53.590;9.922;2023-02-15T07:30:36;8.30;61.90
44729;DHT22;30457;53.590;9.922;2023-02-15T07:35:02;8.30;61.90
44729;DHT22;30457;53.590;9.922;2023-02-15T07:39:27;8.30;61.90
44729;DHT22;30457;53.590;9.922;2023-02-15T07:43:53;8.30;61.90
44729;DHT22;30457;53.590;9.922;2023-02-15T07:48:19;8.30;62.10
44729;DHT22;30457;53.590;9.922;2023-02-15T07:52:44;8.30;62.20
44729;DHT22;30457;53.590;9.922;2023-02-15T07:57:10;8.30;62.10
44729;DHT22;30457;53.590;9.922;2023-02-15T08:01:37;8.30;62.20
44729;DHT22;30457;53.590;9.922;2023-02-15T08:06:03;8.30;62.30
44729;DHT22;30457;53.590;9.922;2023-02-15T08:10:28;8.40;62.40
44729;DHT22;30457;53.590;9.922;2023-02-15T08:15:13;8.40;62.10
44729;DHT22;30457;53.590;9.922;2023-02-15T08:19:38;8.40;61.60
44729;DHT22;30457;53.590;9.922;2023-02-15T08:24:05;8.40;61.70
44729;DHT22;30457;53.590;9.922;2023-02-15T08:28:31;8.40;61.70
44729;DHT22;30457;53.590;9.922;2023-02-15T08:32:57;8.30;61.80
44729;DHT22;30457;53.590;9.922;2023-02-15T08:48:58;8.30;62.10
44729;DHT22;30457;53.590;9.922;2023-02-15T08:53:24;8.30;62.10
44729;DHT22;30457;53.590;9.922;2023-02-15T08:57:50;8.30;62.20
44729;DHT22;30457;53.590;9.922;2023-02-15T09:02:15;8.30;62.20
44729;DHT22;30457;53.590;9.922;2023-02-15T09:06:42;8.30;62.10
44729;DHT22;30457;53.590;9.922;2023-02-15T09:11:12;8.40;62.40
44729;DHT22;30457;53.590;9.922;2023-02-15T09:15:37;8.40;63.30
44729;DHT22;30457;53.590;9.922;2023-02-15T09:20:03;8.50;62.60
44729;DHT22;30457;53.590;9.922;2023-02-15T09:24:31;8.50;62.60
44729;DHT22;30457;53.590;9.922;2023-02-15T09:28:59;8.60;62.70
44729;DHT22;30457;53.590;9.922;2023-02-15T09:33:26;8.60;62.70
44729;DHT22;30457;53.590;9.922;2023-02-15T09:37:51;8.70;62.70
44729;DHT22;30457;53.590;9.922;2023-02-15T09:43:14;8.70;62.40
44729;DHT22;30457;53.590;9.922;2023-02-15T09:47:32;8.80;62.60
44729;DHT22;30457;53.590;9.922;2023-02-15T09:56:57;8.90;62.40
44729;DHT22;30457;53.590;9.922;2023-02-15T10:01:41;9.00;62.30
44729;DHT22;30457;53.590;9.922;2023-02-15T10:11:27;9.10;62.40
44729;DHT22;30457;53.590;9.922;2023-02-15T10:20:55;9.10;61.80
44729;DHT22;30457;53.590;9.922;2023-02-15T10:25:31;9.20;61.90
44729;DHT22;30457;53.590;9.922;2023-02-15T10:30:11;9.30;61.80
44729;DHT22;30457;53.590;9.922;2023-02-15T10:34:41;9.30;62.00
44729;DHT22;30457;53.590;9.922;2023-02-15T10:39:46;9.40;62.00
44729;DHT22;30457;53.590;9.922;2023-02-15T10:49:16;9.50;61.80
44729;DHT22;30457;53.590;9.922;2023-02-15T11:08:12;9.90;62.30
44729;DHT22;30457;53.590;9.922;2023-02-15T11:12:38;10.00;62.10
44729;DHT22;30457;53.590;9.922;2023-02-15T11:17:10;10.10;61.80
44729;DHT22;30457;53.590;9.922;2023-02-15T11:21:46;10.20;61.10
44729;DHT22;30457;53.590;9.922;2023-02-15T11:31:20;10.30;61.00
44729;DHT22;30457;53.590;9.922;2023-02-15T11:35:57;10.40;61.70
44729;DHT22;30457;53.590;9.922;2023-02-15T11:40:28;10.50;61.70
44729;DHT22;30457;53.590;9.922;2023-02-15T11:45:18;10.70;61.00
44729;DHT22;30457;53.590;9.922;2023-02-15T11:49:45;10.70;60.30
44729;DHT22;30457;53.590;9.922;2023-02-15T11:54:11;10.80;60.50
44729;DHT22;30457;53.590;9.922;2023-02-15T11:58:42;10.90;60.30
44729;DHT22;30457;53.590;9.922;2023-02-15T12:03:16;11.00;60.00
44729;DHT22;30457;53.590;9.922;2023-02-15T12:07:48;11.10;60.00
44729;DHT22;30457;53.590;9.922;2023-02-15T12:12:32;11.20;59.70
44729;DHT22;30457;53.590;9.922;2023-02-15T12:16:58;11.40;59.70
44729;DHT22;30457;53.590;9.922;2023-02-15T12:21:33;11.40;59.30
44729;DHT22;30457;53.590;9.922;2023-02-15T12:25:59;11.50;59.20
44729;DHT22;30457;53.590;9.922;2023-02-15T12:30:31;11.60;59.20
44729;DHT22;30457;53.590;9.922;2023-02-15T12:35:14;11.70;59.20
44729;DHT22;30457;53.590;9.922;2023-02-15T12:39:58;11.80;58.60
44729;DHT22;30457;53.590;9.922;2023-02-15T12:44:33;11.90;58.80
44729;DHT22;30457;53.590;9.922;2023-02-15T12:49:05;12.00;58.70
44729;DHT22;30457;53.590;9.922;2023-02-15T12:53:35;12.10;58.70
44729;DHT22;30457;53.590;9.922;2023-02-15T12:58:23;12.30;58.80
44729;DHT22;30457;53.590;9.922;2023-02-15T13:02:55;12.40;58.50
44729;DHT22;30457;53.590;9.922;2023-02-15T13:07:23;12.50;58.60
44729;DHT22;30457;53.590;9.922;2023-02-15T13:11:49;12.70;58.50
44729;DHT22;30457;53.590;9.922;2023-02-15T13:16:15;12.90;58.40
44729;DHT22;30457;53.590;9.922;2023-02-15T13:20:42;13.00;58.20
44729;DHT22;30457;53.590;9.922;2023-02-15T13:25:25;13.20;58.10
44729;DHT22;30457;53.590;9.922;2023-02-15T13:29:54;13.30;57.50
44729;DHT22;30457;53.590;9.922;2023-02-15T13:34:35;13.40;57.60
44729;DHT22;30457;53.590;9.922;2023-02-15T13:44:07;13.60;57.00
44729;DHT22;30457;53.590;9.922;2023-02-15T14:03:54;13.90;56.00
44729;DHT22;30457;53.590;9.922;2023-02-15T14:18:25;13.90;55.60
44729;DHT22;30457;53.590;9.922;2023-02-15T14:23:11;13.90;55.50
44729;DHT22;30457;53.590;9.922;2023-02-15T14:28:05;13.90;55.40
44729;DHT22;30457;53.590;9.922;2023-02-15T14:32:41;13.90;55.70
44729;DHT22;30457;53.590;9.922;2023-02-15T14:37:11;13.90;55.60
44729;DHT22;30457;53.590;9.922;2023-02-15T14:41:43;13.80;55.50
44729;DHT22;30457;53.590;9.922;2023-02-15T14:50:43;13.80;55.60
44729;DHT22;30457;53.590;9.922;2023-02-15T14:55:09;13.70;55.70
44729;DHT22;30457;53.590;9.922;2023-02-15T15:04:27;13.70;55.70
44729;DHT22;30457;53.590;9.922;2023-02-15T15:09:40;13.70;55.30
44729;DHT22;30457;53.590;9.922;2023-02-15T15:13:54;13.70;55.60
44729;DHT22;30457;53.590;9.922;2023-02-15T15:18:43;13.70;55.50
44729;DHT22;30457;53.590;9.922;2023-02-15T15:27:45;13.70;55.50
44729;DHT22;30457;53.590;9.922;2023-02-15T15:32:14;13.60;55.50
44729;DHT22;30457;53.590;9.922;2023-02-15T15:36:53;13.60;55.50
44729;DHT22;30457;53.590;9.922;2023-02-15T15:41:42;13.60;55.40
44729;DHT22;30457;53.590;9.922;2023-02-15T15:51:26;13.50;55.30
44729;DHT22;30457;53.590;9.922;2023-02-15T15:56:02;13.40;55.20
44729;DHT22;30457;53.590;9.922;2023-02-15T16:00:40;13.40;55.30
44729;DHT22;30457;53.590;9.922;2023-02-15T16:05:08;13.30;55.40
44729;DHT22;30457;53.590;9.922;2023-02-15T16:09:34;13.20;55.50
44729;DHT22;30457;53.590;9.922;2023-02-15T16:14:00;13.10;55.50
44729;DHT22;30457;53.590;9.922;2023-02-15T16:18:26;13.00;55.50
44729;DHT22;30457;53.590;9.922;2023-02-15T16:27:57;12.90;55.50
44729;DHT22;30457;53.590;9.922;2023-02-15T16:32:26;12.70;55.60
44729;DHT22;30457;53.590;9.922;2023-02-15T16:36:52;12.70;55.70
44729;DHT22;30457;53.590;9.922;2023-02-15T16:41:37;12.60;55.80
44729;DHT22;30457;53.590;9.922;2023-02-15T16:46:06;12.50;55.70
44729;DHT22;30457;53.590;9.922;2023-02-15T16:50:36;12.40;55.60
44729;DHT22;30457;53.590;9.922;2023-02-15T16:55:04;12.30;55.70
44729;DHT22;30457;53.590;9.922;2023-02-15T16:59:35;12.20;55.80
44729;DHT22;30457;53.590;9.922;2023-02-15T17:08:45;12.00;56.00
44729;DHT22;30457;53.590;9.922;2023-02-15T17:13:15;11.90;56.00
44729;DHT22;30457;53.590;9.922;2023-02-15T17:17:41;11.80;56.20
44729;DHT22;30457;53.590;9.922;2023-02-15T17:22:14;11.70;56.30
44729;DHT22;30457;53.590;9.922;2023-02-15T17:26:42;11.60;56.40
44729;DHT22;30457;53.590;9.922;2023-02-15T17:31:07;11.50;56.50
44729;DHT22;30457;53.590;9.922;2023-02-15T17:35:33;11.50;56.70
44729;DHT22;30457;53.590;9.922;2023-02-15T17:40:00;11.40;56.60
44729;DHT22;30457;53.590;9.922;2023-02-15T17:44:27;11.30;56.60
44729;DHT22;30457;53.590;9.922;2023-02-15T17:48:54;11.30;56.70
44729;DHT22;30457;53.590;9.922;2023-02-15T17:53:21;11.20;56.90
44729;DHT22;30457;53.590;9.922;2023-02-15T17:57:47;11.20;57.00
44729;DHT22;30457;53.590;9.922;2023-02-15T18:02:12;11.10;57.00
44729;DHT22;30457;53.590;9.922;2023-02-15T18:06:56;11.00;57.00
44729;DHT22;30457;53.590;9.922;2023-02-15T18:11:41;10.90;57.10
44729;DHT22;30457;53.590;9.922;2023-02-15T18:16:17;10.90;57.20
44729;DHT22;30457;53.590;9.922;2023-02-15T18:20:44;10.80;57.30
44729;DHT22;30457;53.590;9.922;2023-02-15T18:25:14;10.70;57.30
44729;DHT22;30457;53.590;9.922;2023-02-15T18:29:40;10.60;57.40
44729;DHT22;30457;53.590;9.922;2023-02-15T18:34:14;10.60;57.40
44729;DHT22;30457;53.590;9.922;2023-02-15T18:38:43;10.50;57.50
44729;DHT22;30457;53.590;9.922;2023-02-15T18:43:12;10.40;57.60
44729;DHT22;30457;53.590;9.922;2023-02-15T18:47:38;10.40;57.70
44729;DHT22;30457;53.590;9.922;2023-02-15T18:52:03;10.30;57.60
44729;DHT22;30457;53.590;9.922;2023-02-15T18:56:29;10.20;57.40
44729;DHT22;30457;53.590;9.922;2023-02-15T19:00:55;10.20;57.60
44729;DHT22;30457;53.590;9.922;2023-02-15T19:05:24;10.10;58.30
44729;DHT22;30457;53.590;9.922;2023-02-15T19:09:55;10.00;57.70
44729;DHT22;30457;53.590;9.922;2023-02-15T19:14:29;10.00;57.90
44729;DHT22;30457;53.590;9.922;2023-02-15T19:18:55;9.90;58.10
44729;DHT22;30457;53.590;9.922;2023-02-15T19:23:22;9.90;57.90
44729;DHT22;30457;53.590;9.922;2023-02-15T19:27:48;9.80;57.80
44729;DHT22;30457;53.590;9.922;2023-02-15T19:32:14;9.80;58.00
44729;DHT22;30457;53.590;9.922;2023-02-15T19:36:44;9.70;57.90
44729;DHT22;30457;53.590;9.922;2023-02-15T19:41:18;9.70;57.90
44729;DHT22;30457;53.590;9.922;2023-02-15T19:45:47;9.60;58.00
44729;DHT22;30457;53.590;9.922;2023-02-15T19:50:21;9.50;58.00
44729;DHT22;30457;53.590;9.922;2023-02-15T19:54:48;9.50;58.10
44729;DHT22;30457;53.590;9.922;2023-02-15T19:59:26;9.40;58.20
44729;DHT22;30457;53.590;9.922;2023-02-15T20:03:51;9.40;58.30
44729;DHT22;30457;53.590;9.922;2023-02-15T20:08:20;9.40;58.30
44729;DHT22;30457;53.590;9.922;2023-02-15T20:12:47;9.30;58.10
44729;DHT22;30457;53.590;9.922;2023-02-15T20:17:13;9.20;57.90
44729;DHT22;30457;53.590;9.922;2023-02-15T20:21:40;9.20;58.20
44729;DHT22;30457;53.590;9.922;2023-02-15T20:26:16;9.10;58.30
44729;DHT22;30457;53.590;9.922;2023-02-15T20:30:42;9.10;58.40
44729;DHT22;30457;53.590;9.922;2023-02-15T20:35:12;9.00;58.20
44729;DHT22;30457;53.590;9.922;2023-02-15T20:39:38;8.90;58.30
44729;DHT22;30457;53.590;9.922;2023-02-15T20:44:28;8.90;58.50
44729;DHT22;30457;53.590;9.922;2023-02-15T20:48:55;8.80;58.70
44729;DHT22;30457;53.590;9.922;2023-02-15T20:53:20;8.70;58.60
44729;DHT22;30457;53.590;9.922;2023-02-15T20:57:46;8.70;58.60
44729;DHT22;30457;53.590;9.922;2023-02-15T21:02:19;8.60;58.50
44729;DHT22;30457;53.590;9.922;2023-02-15T21:06:45;8.60;58.70
44729;DHT22;30457;53.590;9.922;2023-02-15T21:11:21;8.60;58.80
44729;DHT22;30457;53.590;9.922;2023-02-15T21:15:48;8.60;59.00
44729;DHT22;30457;53.590;9.922;2023-02-15T21:20:14;8.50;59.10
44729;DHT22;30457;53.590;9.922;2023-02-15T21:24:45;8.50;59.20
44729;DHT22;30457;53.590;9.922;2023-02-15T21:29:20;8.40;59.20
44729;DHT22;30457;53.590;9.922;2023-02-15T21:33:46;8.40;59.10
44729;DHT22;30457;53.590;9.922;2023-02-15T21:38:13;8.40;58.80
44729;DHT22;30457;53.590;9.922;2023-02-15T21:42:40;8.40;58.70
44729;DHT22;30457;53.590;9.922;2023-02-15T21:47:30;8.40;58.80
44729;DHT22;30457;53.590;9.922;2023-02-15T21:52:17;8.30;58.90
44729;DHT22;30457;53.590;9.922;2023-02-15T21:56:44;8.30;58.80
44729;DHT22;30457;53.590;9.922;2023-02-15T22:01:32;8.20;58.70
44729;DHT22;30457;53.590;9.922;2023-02-15T22:05:58;8.10;58.90
44729;DHT22;30457;53.590;9.922;2023-02-15T22:10:31;8.10;58.80
44729;DHT22;30457;53.590;9.922;2023-02-15T22:14:57;8.00;58.70
44729;DHT22;30457;53.590;9.922;2023-02-15T22:19:23;8.00;58.70
44729;DHT22;30457;53.590;9.922;2023-02-15T22:23:48;7.90;58.60
44729;DHT22;30457;53.590;9.922;2023-02-15T22:28:14;7.90;58.50
44729;DHT22;30457;53.590;9.922;2023-02-15T22:32:41;7.80;58.60
44729;DHT22;30457;53.590;9.922;2023-02-15T22:37:07;7.80;58.80
44729;DHT22;30457;53.590;9.922;2023-02-15T22:41:33;7.70;59.00
44729;DHT22;30457;53.590;9.922;2023-02-15T22:46:01;7.70;59.10
44729;DHT22;30457;53.590;9.922;2023-02-15T22:50:31;7.70;59.50
44729;DHT22;30457;53.590;9.922;2023-02-15T22:54:57;7.70;59.80
44729;DHT22;30457;53.590;9.922;2023-02-15T22:59:27;7.70;60.10
44729;DHT22;30457;53.590;9.922;2023-02-15T23:03:53;7.70;60.60
44729;DHT22;30457;53.590;9.922;2023-02-15T23:08:19;7.70;60.80
44729;DHT22;30457;53.590;9.922;2023-02-15T23:12:55;7.80;60.90
44729;DHT22;30457;53.590;9.922;2023-02-15T23:17:39;7.80;61.10
44729;DHT22;30457;53.590;9.922;2023-02-15T23:22:14;7.90;61.10
44729;DHT22;30457;53.590;9.922;2023-02-15T23:26:40;7.90;61.00
44729;DHT22;30457;53.590;9.922;2023-02-15T23:31:17;8.00;60.70
44729;DHT22;30457;53.590;9.922;2023-02-15T23:35:43;8.00;60.70
44729;DHT22;30457;53.590;9.922;2023-02-15T23:40:16;8.10;60.70
44729;DHT22;30457;53.590;9.922;2023-02-15T23:45:01;8.10;60.80
44729;DHT22;30457;53.590;9.922;2023-02-15T23:49:27;8.10;60.60
44729;DHT22;30457;53.590;9.922;2023-02-15T23:53:53;8.10;60.60
44729;DHT22;30457;53.590;9.922;2023-02-15T23:58:21;8.20;60.70
